Tiempo atmosférico en la estación meteorológica de Ballobar, Huesca (178 m.)



Fecha
DESCASC
Temp. máxima en grados centígrados (hora)
DESCASC
Temp. mínima en grados centígrados (hora)
DESCASC
Temp. media en grados centígrados
DESCASC
Racha de viento máxima en m/sg (hora)
DESCASC
Velocidad máxima media en intervalos de 10 minutos(hora)
DESCASC
Precipitaciones diarias en mm
DESCASC
Precipitaciones de 00:00 a 06:00 en mm
DESCASC
Precipitaciones de 06:00 a 12:00 en mm
DESCASC
Precipitaciones de 12:00 a 18:00 en mm
DESCASC
Precipitaciones de 18:00 a 24:00 en mm
DESCASC
17-09-2020 30.1 (16:30) 17.6 (06:50) 23.9 9.17 (17:40) 5.83 (18:00) 0 0 0 0 0
16-09-2020 33 (16:50) 17 (07:50) 25 7.5 (19:10) 4.72 (19:10) 0 0 0 0 0
15-09-2020 32.2 (16:50) 17.5 (06:20) 24.9 7.5 (17:40) 4.44 (17:40) 0 0 0 0 0
14-09-2020 33.1 (16:50) 14.8 (00:00) 23.9 10.28 (19:00) 5.56 (13:20) 0 0 0 0 0
13-09-2020 33.7 (16:50) 14.7 (00:00) 24.2 8.06 (19:10) 5 (19:00) 0 0 0 0 0
12-09-2020 32 (16:10) 14.9 (00:00) 23.4 5.56 (15:30) 3.06 (16:30) 0 0 0 0 0
11-09-2020 31.9 (18:00) 14.7 (00:00) 23.3 5.83 (21:30) 3.61 (21:30) 0 0 0 0 0
10-09-2020 31.1 (16:30) 16.8 (00:00) 23.9 9.72 (22:30) 5.83 (22:30) 0 0 0 0 0
09-09-2020 26.3 (17:20) 17.1 (00:00) 21.7 9.72 (20:40) 6.11 (14:10) 0 0 0 0 0
08-09-2020 28.2 (16:50) 10.7 (00:00) 19.5 8.89 (00:10) 5.56 (00:10) 0 0 0 0 0
07-09-2020 28.3 (18:50) 14.3 (07:40) 21.3 10 (19:20) 7.22 (19:20) 0 0 0 0 0
06-09-2020 30 (16:40) 16.6 (00:00) 23.3 9.72 (18:30) 5.83 (18:50) 0 0 0 0 0
05-09-2020 32.2 (17:40) 15.2 (00:00) 23.7 7.78 (22:10) 4.72 (20:30) 0 0 0 0 0
04-09-2020 32.3 (16:40) 14.4 (00:00) 23.3 7.22 (16:10) 4.72 (20:00) 0 0 0 0 0
03-09-2020 30.4 (16:50) 12.2 (00:00) 21.3 6.67 (18:20) 4.72 (20:40) 0 0 0 0 0
02-09-2020 28.9 (17:10) 13.3 (00:00) 21.1 7.22 (14:10) 3.89 (11:10) 0 0 0 0 0
01-09-2020 27.8 (19:10) 11.9 (00:00) 19.8 5 (22:20) 3.89 (22:30) 0 0 0 0 0
31-08-2020 27.7 (18:00) 12 (00:00) 19.9 10 (11:30) 5.83 (02:20) 0 0 0 0 0
30-08-2020 25.6 (17:20) 14.5 (00:00) 20.1 14.72 (00:20) 8.89 (00:20) 0 0 0 0 0
29-08-2020 26.3 (16:50) 17.9 (00:00) 22.1 15.28 (22:20) 9.72 (22:10) 0 0 0 0 0
28-08-2020 31.4 (16:00) 21.7 (00:00) 26.6 16.11 (19:50) 7.78 (22:40) 0 0 0 0 0
27-08-2020 35.6 (17:20) 22 (00:00) 28.8 6.39 (03:10) 4.17 (19:50) 0 0 0 0 0
26-08-2020 35.2 (17:20) 20.3 (00:00) 27.8 6.39 (13:20) 3.89 (19:40) 0 0 0 0 0
25-08-2020 36.2 (18:00) 16.2 (00:00) 26.2 5.83 (16:30) 3.06 (21:10) 0 0 0 0 0
24-08-2020 31.2 (17:30) 15.6 (00:00) 23.4 6.94 (10:40) 4.72 (10:50) 0 0 0 0 0
23-08-2020 32.2 (19:20) 17.7 (00:00) 25 8.89 (12:20) 5.28 (01:30) 0 0 0 0 0
22-08-2020 34.6 (17:00) 21.3 (00:00) 27.9 7.78 (23:50) 5.83 (23:50) 0 0 0 0 0
21-08-2020 36.4 (18:30) 20.2 (00:00) 28.3 7.5 (02:40) 4.72 (02:10) 0 0 0 0 0
20-08-2020 35.6 (15:40) 18.8 (00:00) 27.2 13.06 (19:30) 8.33 (19:40) 0 0 0 0 0

Gráficas

Temp. máximas Temp. mínimas Temp. medias Precipitaciones Rachas de viento máximas Velocidades máximas media en intervalos de 10 minutos

Datos horarios

Fecha y hora oficial Temperatura (ºC) Velocidad del viento (km/h) Dirección del viento Racha (km/h) Dirección de racha Precipitación (mm) Presión (hPa) Tendencia (hPa) Humedad (%)
2020-09-18 23:00:00 21.1 10 Este 22 Este 0 -- -- 84
2020-09-18 22:00:00 21.4 13 Nordeste 27 Este 0 -- -- 79
2020-09-18 21:00:00 22.6 15 Este 32 Sudeste 0 -- -- 75
2020-09-18 20:00:00 22.8 20 Este 35 Este 0 -- -- 73
2020-09-18 19:00:00 24.2 22 Sudeste 50 Este 0 -- -- 65
2020-09-18 18:00:00 24.6 26 Este 47 Sudeste 0 -- -- 61
2020-09-18 17:00:00 24.7 23 Este 42 Este 0 -- -- 70
2020-09-18 16:00:00 24.5 26 Este 48 Este 0 -- -- 67
2020-09-18 15:00:00 24.6 30 Este 43 Este 0 -- -- 73
2020-09-18 14:00:00 24.2 28 Este 42 Este 0 -- -- 76
2020-09-18 13:00:00 23 21 Este 30 Este 0 -- -- 85
2020-09-18 12:00:00 21 19 Este 35 Este 0.4 -- -- 93
2020-09-18 11:00:00 20.4 26 Este 32 Este 0.8 -- -- 90
2020-09-18 10:00:00 21.9 6 Este 19 Este 0 -- -- 76
2020-09-18 09:00:00 21.7 12 Nordeste 29 Este 0 -- -- 71
2020-09-18 08:00:00 21.3 14 Este 25 Este 0 -- -- 68
2020-09-18 07:00:00 22 14 Este 29 Este 0 -- -- 64
2020-09-18 06:00:00 21.4 15 Este 23 Este 0 -- -- 64
2020-09-18 05:00:00 21.7 15 Este 24 Este 0 -- -- 67
2020-09-18 04:00:00 21.5 13 Este 19 Nordeste 0 -- -- 67
2020-09-18 03:00:00 21.7 13 Este 21 Este 0 -- -- 72
2020-09-18 02:00:00 22.5 11 Este 20 Este 0 -- -- 72
2020-09-18 01:00:00 23 9 Este 17 Este 0 -- -- 69
2020-09-18 00:00:00 23 5 Este 14 Nordeste 0 -- -- 66
2020-09-17 23:00:00 24.2 10 Este 20 Este 0 -- -- 62
2020-09-17 22:00:00 25.1 9 Este 19 Este 0 -- -- 57
2020-09-17 21:00:00 25.7 12 Este 25 Este 0 -- -- 56
2020-09-17 20:00:00 26.8 18 Este 29 Este 0 -- -- 55
2020-09-17 19:00:00 28.4 16 Este 32 Sudeste 0 -- -- 52
2020-09-17 18:00:00 29.2 21 Este 33 Sudeste 0 -- -- 47
2020-09-17 17:00:00 29.9 15 Este 25 Nordeste 0 -- -- 38
2020-09-17 16:00:00 29.8 17 Este 29 Nordeste 0 -- -- 41
2020-09-17 15:00:00 26.6 16 Este 23 Este 0 -- -- 54
2020-09-17 14:00:00 26.2 14 Este 18 Este 0 -- -- 53
2020-09-17 13:00:00 26.3 8 Este 18 Este 0 -- -- 54
2020-09-17 12:00:00 24.3 14 Este 20 Este 0 -- -- 61
2020-09-17 11:00:00 20.8 7 Nordeste 14 Este 0 -- -- 75
2020-09-17 10:00:00 19.8 0 Calma 9 Este 0 -- -- 78
2020-09-17 09:00:00 17.7 9 Nordeste 13 Nordeste 0 -- -- 86
2020-09-17 08:00:00 17.7 3 Este 4 Este 0 -- -- 84
2020-09-17 07:00:00 17.6 4 Noroeste 5 Oeste 0 -- -- 85
2020-09-17 06:00:00 17.9 4 Nordeste 7 Este 0 -- -- 85
2020-09-17 05:00:00 18.9 0 Calma 6 Este 0 -- -- 81
2020-09-17 04:00:00 19.7 3 Oeste 11 Nordeste 0 -- -- 79
2020-09-17 03:00:00 21 6 Este 14 Nordeste 0 -- -- 76
2020-09-17 02:00:00 22.2 6 Nordeste 14 Nordeste 0 -- -- 71
2020-09-17 01:00:00 23.3 7 Nordeste 19 Este 0 -- -- 68
2020-09-17 00:00:00 23.2 10 Nordeste 19 Este 0 -- -- 70
2020-09-16 23:00:00 24.4 9 Nordeste 20 Nordeste 0 -- -- 66
2020-09-16 22:00:00 26.1 3 Norte 11 Nordeste 0 -- -- 56
2020-09-16 21:00:00 28.1 4 Sur 18 Sudeste 0 -- -- 50
2020-09-16 20:00:00 29.8 11 Sur 27 Este 0 -- -- 46
2020-09-16 19:00:00 31.9 13 Este 24 Este 0 -- -- 36
2020-09-16 18:00:00 32.5 8 Este 14 Este 0 -- -- 32
2020-09-16 17:00:00 32.8 9 Este 15 Este 0 -- -- 34
2020-09-16 16:00:00 32.3 5 Nordeste 17 Nordeste 0 -- -- 39
2020-09-16 15:00:00 31.7 7 Este 18 Este 0 -- -- 41
2020-09-16 14:00:00 30.1 13 Este 22 Este 0 -- -- 45
2020-09-16 13:00:00 28.2 8 Nordeste 14 Nordeste 0 -- -- 54
2020-09-16 12:00:00 26.3 6 Nordeste 13 Este 0 -- -- 60
2020-09-16 11:00:00 24.1 7 Este 10 Nordeste 0 -- -- 63
2020-09-16 10:00:00 21.3 6 Este 10 Este 0 -- -- 70
2020-09-16 09:00:00 19.1 3 Este 6 Este 0 -- -- 74
2020-09-16 08:00:00 17 2 Noroeste 6 Oeste 0 -- -- 82
2020-09-16 07:00:00 17.4 2 Noroeste 6 Oeste 0 -- -- 82
2020-09-16 06:00:00 17.9 3 Oeste 5 Noroeste 0 -- -- 82
2020-09-16 05:00:00 18.9 2 Este 5 Oeste 0 -- -- 78
2020-09-16 04:00:00 20.2 2 Norte 9 Nordeste 0 -- -- 76
2020-09-16 03:00:00 21.7 6 Nordeste 14 Nordeste 0 -- -- 73
2020-09-16 02:00:00 22.8 8 Nordeste 15 Nordeste 0 -- -- 68
2020-09-16 01:00:00 23.6 5 Nordeste 10 Nordeste 0 -- -- 63
2020-09-16 00:00:00 24.1 3 Nordeste 9 Nordeste 0 -- -- 60
2020-09-15 23:00:00 25.2 3 Oeste 10 Nordeste 0 -- -- 53
2020-09-15 22:00:00 27.6 2 Sur 13 Sur 0 -- -- 45
2020-09-15 21:00:00 28.6 8 Sur 19 Sur 0 -- -- 41
2020-09-15 20:00:00 29.9 5 Sudeste 14 Este 0 -- -- 38
2020-09-15 19:00:00 31.3 10 Este 15 Este 0 -- -- 35
2020-09-15 18:00:00 32 10 Nordeste 27 Este 0 -- -- 33
2020-09-15 17:00:00 32.2 11 Este 19 Este 0 -- -- 33
2020-09-15 16:00:00 31.6 8 Este 19 Este 0 -- -- 36
2020-09-15 15:00:00 31 11 Este 18 Este 0 -- -- 38
2020-09-15 14:00:00 29.9 8 Nordeste 21 Este 0 -- -- 43
2020-09-15 13:00:00 28.7 9 Este 18 Este 0 -- -- 47
2020-09-15 12:00:00 26.7 9 Nordeste 15 Nordeste 0 -- -- 53
2020-09-15 11:00:00 24 8 Nordeste 12 Nordeste 0 -- -- 59
2020-09-15 10:00:00 21.9 2 Este 8 Sudoeste 0 -- -- 62
2020-09-15 09:00:00 20.4 3 Sur 12 Oeste 0 -- -- 64
2020-09-15 08:00:00 19.5 6 Oeste 19 Sudoeste 0 -- -- 67
2020-09-15 07:00:00 18.1 3 Sudoeste 12 Nordeste 0 -- -- 74
2020-09-15 06:00:00 18.4 5 Nordeste 9 Nordeste 0 -- -- 72
2020-09-15 05:00:00 18.5 2 Oeste 5 Nordeste 0 -- -- 70
2020-09-15 04:00:00 19.3 0 Calma 9 Nordeste 0 -- -- 67
2020-09-15 03:00:00 20 4 Este 13 Nordeste 0 -- -- 66
2020-09-15 02:00:00 21.1 9 Nordeste 17 Nordeste 0 -- -- 61
2020-09-15 01:00:00 21.4 8 Nordeste 14 Nordeste 0 -- -- 61
2020-09-15 00:00:00 23.1 7 Este 14 Este 0 -- -- 55
2020-09-14 23:00:00 23.4 3 Este 20 Este 0 -- -- 54
2020-09-14 22:00:00 25.3 12 Este 24 Este 0 -- -- 49
2020-09-14 21:00:00 26.8 12 Este 24 Sudeste 0 -- -- 43
2020-09-14 20:00:00 28.6 13 Sudeste 29 Sudeste 0 -- -- 39
2020-09-14 19:00:00 30.8 19 Sudeste 37 Sudeste 0 -- -- 33
2020-09-14 18:00:00 31.8 17 Este 30 Este 0 -- -- 32
2020-09-14 17:00:00 33.1 18 Sudeste 31 Sudeste 0 -- -- 30
2020-09-14 16:00:00 32.3 18 Este 32 Nordeste 0 -- -- 30
2020-09-14 15:00:00 32.6 17 Este 29 Este 0 -- -- 32
2020-09-14 14:00:00 31.6 16 Este 30 Este 0 -- -- 35
2020-09-14 13:00:00 29.5 17 Este 28 Nordeste 0 -- -- 40
2020-09-14 12:00:00 26.8 13 Este 19 Este 0 -- -- 45
2020-09-14 11:00:00 23.2 4 Este 12 Nordeste 0 -- -- 58
2020-09-14 10:00:00 20.1 9 Nordeste 14 Este 0 -- -- 64
2020-09-14 09:00:00 17.8 3 Este 6 Este 0 -- -- 69
2020-09-14 08:00:00 14.9 3 Oeste 5 Oeste 0 -- -- 79
2020-09-14 07:00:00 15.3 4 Oeste 8 Oeste 0 -- -- 79
2020-09-14 06:00:00 15.4 4 Oeste 6 Este 0 -- -- 79
2020-09-14 05:00:00 16.8 3 Este 6 Este 0 -- -- 74
2020-09-14 04:00:00 17.7 0 Calma 8 Sudoeste 0 -- -- 70
2020-09-14 03:00:00 19.3 3 Sudoeste 9 Nordeste 0 -- -- 63
2020-09-14 02:00:00 20.8 2 Noroeste 5 Oeste 0 -- -- 58
2020-09-14 01:00:00 21.8 0 Calma 9 Nordeste 0 -- -- 57
2020-09-14 00:00:00 23.2 9 Nordeste 13 Nordeste 0 -- -- 54
2020-09-13 23:00:00 25.3 6 Sudeste 18 Sur 0 -- -- 49
2020-09-13 22:00:00 26.8 12 Sur 20 Sur 0 -- -- 43
2020-09-13 21:00:00 28.7 10 Sudeste 18 Sudeste 0 -- -- 37
2020-09-13 20:00:00 30.9 12 Este 29 Este 0 -- -- 32
2020-09-13 19:00:00 32.7 18 Este 28 Este 0 -- -- 27
2020-09-13 18:00:00 33.5 10 Este 25 Nordeste 0 -- -- 26
2020-09-13 17:00:00 33.7 13 Este 23 Nordeste 0 -- -- 27
2020-09-13 16:00:00 33.2 10 Nordeste 27 Este 0 -- -- 31
2020-09-13 15:00:00 32.3 9 Nordeste 18 Nordeste 0 -- -- 33
2020-09-13 14:00:00 30.9 9 Este 17 Este 0 -- -- 38
2020-09-13 13:00:00 28.7 9 Nordeste 19 Este 0 -- -- 45
2020-09-13 12:00:00 26.2 9 Este 14 Este 0 -- -- 50
2020-09-13 11:00:00 24.3 8 Este 12 Nordeste 0 -- -- 55
2020-09-13 10:00:00 20.7 6 Este 9 Nordeste 0 -- -- 62
2020-09-13 09:00:00 18.1 3 Este 6 Noroeste 0 -- -- 71
2020-09-13 08:00:00 15 3 Oeste 6 Noroeste 0 -- -- 79
2020-09-13 07:00:00 15 0 Calma 6 Este 0 -- -- 78
2020-09-13 06:00:00 15.9 3 Noroeste 6 Oeste 0 -- -- 76
2020-09-13 05:00:00 16.4 0 Calma 6 Nordeste 0 -- -- 72
2020-09-13 04:00:00 17.8 0 Calma 7 Nordeste 0 -- -- 66
2020-09-13 03:00:00 19.7 2 Nordeste 9 Nordeste 0 -- -- 63
2020-09-13 02:00:00 21 4 Nordeste 9 Nordeste 0 -- -- 58
2020-09-13 01:00:00 21.8 5 Nordeste 12 Nordeste 0 -- -- 56
2020-09-13 00:00:00 22.6 0 Calma 12 Sudeste 0 -- -- 51
2020-09-12 23:00:00 24.8 9 Sudeste 15 Sudeste 0 -- -- 46
2020-09-12 22:00:00 26.2 3 Norte 15 Sudeste 0 -- -- 44
2020-09-12 21:00:00 27.4 6 Sur 14 Sudeste 0 -- -- 42
2020-09-12 20:00:00 29.7 4 Nordeste 8 Nordeste 0 -- -- 38
2020-09-12 19:00:00 31.1 7 Nordeste 12 Este 0 -- -- 35
2020-09-12 18:00:00 31.8 8 Nordeste 15 Este 0 -- -- 34
2020-09-12 17:00:00 31.9 6 Este 18 Este 0 -- -- 34
2020-09-12 16:00:00 31.5 8 Este 20 Nordeste 0 -- -- 36
2020-09-12 15:00:00 31.3 5 Este 19 Sudeste 0 -- -- 37
2020-09-12 14:00:00 29.6 8 Este 15 Este 0 -- -- 39
2020-09-12 13:00:00 27.8 10 Este 16 Este 0 -- -- 49
2020-09-12 12:00:00 25.7 7 Nordeste 13 Nordeste 0 -- -- 53
2020-09-12 11:00:00 22.7 6 Este 14 Nordeste 0 -- -- 60
2020-09-12 10:00:00 19.8 6 Nordeste 11 Nordeste 0 -- -- 69
2020-09-12 09:00:00 17.4 4 Este 5 Nordeste 0 -- -- 74
2020-09-12 08:00:00 15.1 2 Este 6 Oeste 0 -- -- 82
2020-09-12 07:00:00 15.3 2 Oeste 9 Noroeste 0 -- -- 82
2020-09-12 06:00:00 15.7 0 Calma 5 Nordeste 0 -- -- 79
2020-09-12 05:00:00 16.8 3 Oeste 5 Oeste 0 -- -- 77
2020-09-12 04:00:00 17.7 0 Calma 4 Oeste 0 -- -- 73
2020-09-12 03:00:00 18.8 0 Calma 13 Nordeste 0 -- -- 66
2020-09-12 02:00:00 19.7 3 Noroeste 5 Noroeste 0 -- -- 64
2020-09-12 01:00:00 21.2 0 Calma 10 Nordeste 0 -- -- 57
2020-09-12 00:00:00 22.1 5 Este 11 Norte 0 -- -- 56
2020-09-11 23:00:00 23.3 3 Noroeste 8 Oeste 0 -- -- 51
2020-09-11 22:00:00 24.9 2 Norte 21 Este 0 -- -- 46
2020-09-11 21:00:00 26.6 0 Calma 7 Nordeste 0 -- -- 40
2020-09-11 20:00:00 29.8 7 Este 13 Este 0 -- -- 34
2020-09-11 19:00:00 30.8 8 Este 14 Este 0 -- -- 33
2020-09-11 18:00:00 31.9 3 Este 17 Este 0 -- -- 31
2020-09-11 17:00:00 31.4 11 Este 19 Este 0 -- -- 34
2020-09-11 16:00:00 31.5 6 Este 17 Sudeste 0 -- -- 33
2020-09-11 15:00:00 30.2 7 Oeste 21 Sudoeste 0 -- -- 36
2020-09-11 14:00:00 29.1 7 Sudeste 21 Sudoeste 0 -- -- 41
2020-09-11 13:00:00 27.8 7 Sur 14 Sur 0 -- -- 47
2020-09-11 12:00:00 25.7 6 Sur 13 Este 0 -- -- 54
2020-09-11 11:00:00 22.6 6 Este 13 Nordeste 0 -- -- 62
2020-09-11 10:00:00 20.2 7 Nordeste 12 Sudoeste 0 -- -- 70
2020-09-11 09:00:00 16.9 9 Sudoeste 14 Oeste 0 -- -- 81
2020-09-11 08:00:00 14.8 8 Oeste 11 Oeste 0 -- -- 88
2020-09-11 07:00:00 15.1 3 Oeste 5 Nordeste 0 -- -- 87
2020-09-11 06:00:00 15.5 2 Nordeste 5 Este 0 -- -- 85
2020-09-11 05:00:00 15.9 0 Calma 6 Noroeste 0 -- -- 84
2020-09-11 04:00:00 17.1 0 Calma 4 Nordeste 0 -- -- 80
2020-09-11 03:00:00 18.4 0 Calma 6 Nordeste 0 -- -- 77
2020-09-11 02:00:00 19.1 4 Nordeste 13 Nordeste 0 -- -- 75
2020-09-11 01:00:00 20.5 4 Este 10 Nordeste 0 -- -- 70
2020-09-11 00:00:00 21.3 8 Nordeste 24 Este 0 -- -- 67
2020-09-10 23:00:00 22.7 10 Nordeste 35 Este 0 -- -- 64
2020-09-10 22:00:00 23.8 15 Este 33 Este 0 -- -- 58
2020-09-10 21:00:00 27.8 5 Sudeste 9 Sur 0 -- -- 40
2020-09-10 20:00:00 28.9 6 Este 9 Nordeste 0 -- -- 38
2020-09-10 19:00:00 28.9 5 Nordeste 12 Nordeste 0 -- -- 41
2020-09-10 18:00:00 30.1 4 Norte 13 Este 0 -- -- 36
2020-09-10 17:00:00 30.9 6 Nordeste 17 Sudoeste 0 -- -- 38
2020-09-10 16:00:00 30.2 6 Sudoeste 18 Este 0 -- -- 39
2020-09-10 15:00:00 28.2 11 Este 17 Nordeste 0 -- -- 47
2020-09-10 14:00:00 28 8 Sudoeste 19 Oeste 0 -- -- 47
2020-09-10 13:00:00 26.7 8 Sur 19 Sur 0 -- -- 50
2020-09-10 12:00:00 25 5 Norte 14 Sur 0 -- -- 53
2020-09-10 11:00:00 23.4 7 Este 15 Sur 0 -- -- 61
2020-09-10 10:00:00 21.1 9 Sur 17 Sur 0 -- -- 72
2020-09-10 09:00:00 18.7 6 Sudoeste 13 Sudoeste 0 -- -- 81
2020-09-10 08:00:00 17.2 5 Oeste 9 Sudoeste 0 -- -- 87
2020-09-10 07:00:00 17.3 2 Oeste 5 Nordeste 0 -- -- 86
2020-09-10 06:00:00 17.6 2 Este 8 Oeste 0 -- -- 86
2020-09-10 05:00:00 17.4 3 Este 9 Norte 0 -- -- 88
2020-09-10 04:00:00 18 3 Oeste 9 Oeste 0 -- -- 85
2020-09-10 03:00:00 17.9 0 Calma 5 Sur 0 -- -- 84
2020-09-10 02:00:00 18 4 Norte 8 Noroeste 0 -- -- 84
2020-09-10 01:00:00 19.1 3 Este 6 Noroeste 0 -- -- 83
2020-09-10 00:00:00 19.1 0 Calma 13 Nordeste 0 -- -- 83
2020-09-09 23:00:00 19.1 10 Nordeste 19 Nordeste 0 -- -- 83
2020-09-09 22:00:00 19.1 10 Nordeste 26 Nordeste 0 -- -- 82
2020-09-09 21:00:00 20.6 15 Este 35 Este 0 -- -- 75
2020-09-09 20:00:00 23.7 18 Este 27 Nordeste 0 -- -- 59
2020-09-09 19:00:00 26 15 Este 23 Este 0 -- -- 48
2020-09-09 18:00:00 25.6 17 Este 24 Este 0 -- -- 51
2020-09-09 17:00:00 25.3 13 Este 22 Este 0 -- -- 53
2020-09-09 16:00:00 25.1 13 Este 26 Nordeste 0 -- -- 52
2020-09-09 15:00:00 25.8 17 Este 31 Este 0 -- -- 52
2020-09-09 14:00:00 24.8 19 Este 29 Este 0 -- -- 56
2020-09-09 13:00:00 25 15 Este 21 Este 0 -- -- 55
2020-09-09 12:00:00 23.3 11 Este 17 Nordeste 0 -- -- 61
2020-09-09 11:00:00 20.3 8 Este 12 Nordeste 0 -- -- 73
2020-09-09 10:00:00 18.1 3 Este 10 Nordeste 0 -- -- 81
2020-09-09 09:00:00 17.9 2 Norte 12 Oeste 0 -- -- 82
2020-09-09 08:00:00 17.6 5 Oeste 8 Noroeste 0 -- -- 81
2020-09-09 07:00:00 17.2 0 Calma 14 Este 0 -- -- 79
2020-09-09 06:00:00 17.5 2 Este 10 Nordeste 0 -- -- 77
2020-09-09 05:00:00 17.9 2 Oeste 6 Oeste 0 -- -- 74
2020-09-09 04:00:00 17.9 0 Calma 5 Este 0 -- -- 75
2020-09-09 03:00:00 18.2 3 Nordeste 7 Oeste 0 -- -- 72
2020-09-09 02:00:00 19.3 5 Oeste 9 Nordeste 0 -- -- 70
2020-09-09 01:00:00 20.5 5 Nordeste 19 Nordeste 0 -- -- 66
2020-09-09 00:00:00 21 12 Este 19 Sudeste 0 -- -- 64
2020-09-08 23:00:00 21.9 12 Este 22 Este 0 -- -- 60
2020-09-08 22:00:00 22.5 14 Este 26 Este 0 -- -- 56
2020-09-08 21:00:00 23.7 12 Este 15 Este 0 -- -- 45
2020-09-08 20:00:00 25.6 8 Este 12 Este 0 -- -- 34
2020-09-08 19:00:00 26.2 9 Este 18 Este 0 -- -- 33
2020-09-08 18:00:00 26.8 9 Este 25 Este 0 -- -- 32
2020-09-08 17:00:00 27.6 13 Este 24 Este 0 -- -- 29
2020-09-08 16:00:00 27.9 5 Sudeste 23 Este 0 -- -- 29
2020-09-08 15:00:00 27.1 6 Nordeste 20 Oeste 0 -- -- 29
2020-09-08 14:00:00 26 8 Oeste 17 Oeste 0 -- -- 31
2020-09-08 13:00:00 24.8 10 Sudoeste 18 Sudoeste 0 -- -- 35
2020-09-08 12:00:00 23.2 7 Sudeste 13 Sudeste 0 -- -- 38
2020-09-08 11:00:00 20 8 Sudoeste 16 Oeste 0 -- -- 46
2020-09-08 10:00:00 17.4 4 Nordeste 12 Noroeste 0 -- -- 57
2020-09-08 09:00:00 14.3 4 Este 8 Sudoeste 0 -- -- 67
2020-09-08 08:00:00 10.9 5 Sudoeste 9 Sudoeste 0 -- -- 79
2020-09-08 07:00:00 11.3 8 Oeste 10 Oeste 0 -- -- 76
2020-09-08 06:00:00 11.7 2 Oeste 8 Oeste 0 -- -- 74
2020-09-08 05:00:00 12.9 2 Oeste 8 Oeste 0 -- -- 69
2020-09-08 04:00:00 14.7 3 Oeste 13 Sudeste 0 -- -- 64
2020-09-08 03:00:00 16.6 6 Sudeste 16 Sudeste 0 -- -- 59
2020-09-08 02:00:00 17.5 4 Sur 15 Este 0 -- -- 54
2020-09-08 01:00:00 18.8 11 Este 32 Nordeste 0 -- -- 68
2020-09-08 00:00:00 19.9 14 Nordeste 27 Nordeste 0 -- -- 55
2020-09-07 23:00:00 19.5 4 Noroeste 13 Nordeste 0 -- -- 43
2020-09-07 22:00:00 20.6 9 Sudoeste 15 Sudoeste 0 -- -- 37
2020-09-07 21:00:00 22.3 8 Oeste 17 Sudoeste 0 -- -- 35
2020-09-07 20:00:00 25.6 14 Oeste 36 Oeste 0 -- -- 28
2020-09-07 19:00:00 27.6 17 Oeste 30 Oeste 0 -- -- 27
2020-09-07 18:00:00 28.1 10 Noroeste 23 Oeste 0 -- -- 26
2020-09-07 17:00:00 27.5 13 Oeste 27 Oeste 0 -- -- 27
2020-09-07 16:00:00 26.7 10 Oeste 20 Oeste 0 -- -- 30
2020-09-07 15:00:00 25.7 9 Noroeste 17 Noroeste 0 -- -- 31
2020-09-07 14:00:00 24.3 8 Noroeste 18 Oeste 0 -- -- 38
2020-09-07 13:00:00 22.8 8 Oeste 16 Oeste 0 -- -- 46
2020-09-07 12:00:00 21.1 6 Este 17 Nordeste 0 -- -- 51
2020-09-07 11:00:00 19 6 Norte 22 Noroeste 0 -- -- 55
2020-09-07 10:00:00 17.1 5 Norte 13 Oeste 0 -- -- 63
2020-09-07 09:00:00 15.2 8 Oeste 18 Sudoeste 0 -- -- 68
2020-09-07 08:00:00 14.5 9 Sudoeste 15 Oeste 0 -- -- 64
2020-09-07 07:00:00 14.7 12 Sudoeste 16 Sudoeste 0 -- -- 64
2020-09-07 06:00:00 14.8 11 Sudoeste 17 Sudoeste 0 -- -- 64
2020-09-07 05:00:00 15.1 9 Oeste 16 Sudoeste 0 -- -- 65
2020-09-07 04:00:00 15.9 8 Sudoeste 18 Sudoeste 0 -- -- 63
2020-09-07 03:00:00 17.4 9 Sudoeste 24 Oeste 0 -- -- 58
2020-09-07 02:00:00 18.4 13 Oeste 26 Oeste 0 -- -- 55
2020-09-07 01:00:00 18.8 17 Sudoeste 23 Sudoeste 0 -- -- 54
2020-09-07 00:00:00 19.6 13 Noroeste 23 Noroeste 0 -- -- 52
2020-09-06 23:00:00 20.4 9 Noroeste 16 Oeste 0 -- -- 50
2020-09-06 22:00:00 22 8 Oeste 24 Sudoeste 0 -- -- 45
2020-09-06 21:00:00 24 11 Oeste 19 Oeste 0 -- -- 40
2020-09-06 20:00:00 26.1 13 Oeste 28 Oeste 0 -- -- 37
2020-09-06 19:00:00 27.8 20 Sudoeste 35 Oeste 0 -- -- 37
2020-09-06 18:00:00 29.1 17 Oeste 28 Oeste 0 -- -- 35
2020-09-06 17:00:00 29.6 15 Oeste 31 Sudoeste 0 -- -- 36
2020-09-06 16:00:00 29.4 16 Oeste 28 Oeste 0 -- -- 37
2020-09-06 15:00:00 28.7 17 Oeste 28 Oeste 0 -- -- 38
2020-09-06 14:00:00 27.3 10 Norte 21 Norte 0 -- -- 45
2020-09-06 13:00:00 25.4 10 Noroeste 19 Noroeste 0 -- -- 50
2020-09-06 12:00:00 23.4 13 Noroeste 19 Noroeste 0 -- -- 54
2020-09-06 11:00:00 21.7 7 Nordeste 18 Nordeste 0 -- -- 60
2020-09-06 10:00:00 20.3 4 Noroeste 15 Sudoeste 0 -- -- 63
2020-09-06 09:00:00 18.3 9 Sudoeste 14 Sudoeste 0 -- -- 70
2020-09-06 08:00:00 16.9 11 Sudoeste 17 Sudoeste 0 -- -- 75
2020-09-06 07:00:00 16.6 10 Sudoeste 14 Sudoeste 0 -- -- 77
2020-09-06 06:00:00 16.8 7 Sudoeste 10 Sudoeste 0 -- -- 79
2020-09-06 05:00:00 17.4 4 Oeste 10 Oeste 0 -- -- 76
2020-09-06 04:00:00 18.3 6 Oeste 12 Oeste 0 -- -- 73
2020-09-06 03:00:00 19.5 9 Oeste 16 Noroeste 0 -- -- 70
2020-09-06 02:00:00 20.8 8 Oeste 16 Oeste 0 -- -- 65
2020-09-06 01:00:00 23.5 15 Oeste 28 Oeste 0 -- -- 54
2020-09-06 00:00:00 24.2 10 Oeste 24 Oeste 0 -- -- 54
2020-09-05 23:00:00 25.2 3 Nordeste 28 Sudeste 0 -- -- 64
2020-09-05 22:00:00 26.4 14 Sudeste 24 Sudeste 0 -- -- 60
2020-09-05 21:00:00 28.5 8 Este 27 Este 0 -- -- 54
2020-09-05 20:00:00 30.7 7 Este 12 Este 0 -- -- 41
2020-09-05 19:00:00 31.6 7 Este 15 Este 0 -- -- 39
2020-09-05 18:00:00 32 8 Nordeste 14 Este 0 -- -- 38
2020-09-05 17:00:00 31.8 6 Nordeste 21 Nordeste 0 -- -- 38
2020-09-05 16:00:00 31.5 9 Este 18 Nordeste 0 -- -- 40
2020-09-05 15:00:00 30.5 12 Este 21 Este 0 -- -- 46
2020-09-05 14:00:00 29.5 7 Este 17 Este 0 -- -- 48
2020-09-05 13:00:00 27.5 7 Norte 17 Nordeste 0 -- -- 52
2020-09-05 12:00:00 26.4 10 Nordeste 17 Nordeste 0 -- -- 59
2020-09-05 11:00:00 23.3 8 Nordeste 15 Nordeste 0 -- -- 66
2020-09-05 10:00:00 20.9 3 Nordeste 10 Este 0 -- -- 71
2020-09-05 09:00:00 18.2 5 Nordeste 8 Este 0 -- -- 77
2020-09-05 08:00:00 15.8 0 Calma 6 Oeste 0 -- -- 85
2020-09-05 07:00:00 15.8 2 Nordeste 6 Nordeste 0 -- -- 82
2020-09-05 06:00:00 16.7 3 Norte 5 Nordeste 0 -- -- 79
2020-09-05 05:00:00 17.4 0 Calma 4 Nordeste 0 -- -- 77
2020-09-05 04:00:00 18.5 3 Noroeste 6 Norte 0 -- -- 74
2020-09-05 03:00:00 19.7 5 Nordeste 13 Este 0 -- -- 69
2020-09-05 02:00:00 20.2 4 Este 12 Este 0 -- -- 69
2020-09-05 01:00:00 21.6 9 Nordeste 17 Este 0 -- -- 66
2020-09-05 00:00:00 22 7 Nordeste 12 Nordeste 0 -- -- 68
2020-09-04 23:00:00 23.7 4 Oeste 9 Noroeste 0 -- -- 61
2020-09-04 22:00:00 25.1 6 Sudoeste 12 Sudeste 0 -- -- 59
2020-09-04 21:00:00 26.9 7 Sudeste 24 Sudeste 0 -- -- 54
2020-09-04 20:00:00 29.4 17 Este 26 Este 0 -- -- 46
2020-09-04 19:00:00 31.7 13 Este 22 Este 0 -- -- 31
2020-09-04 18:00:00 32.1 14 Este 24 Este 0 -- -- 30
2020-09-04 17:00:00 32.2 14 Este 26 Este 0 -- -- 32
2020-09-04 16:00:00 31.6 13 Nordeste 24 Este 0 -- -- 33
2020-09-04 15:00:00 30.5 12 Nordeste 26 Nordeste 0 -- -- 37
2020-09-04 14:00:00 29.4 11 Nordeste 21 Este 0 -- -- 42
2020-09-04 13:00:00 28.3 15 Este 25 Este 0 -- -- 46
2020-09-04 12:00:00 25.9 11 Este 17 Este 0 -- -- 55
2020-09-04 11:00:00 23.2 4 Este 10 Sudeste 0 -- -- 65
2020-09-04 10:00:00 20.4 6 Nordeste 14 Nordeste 0 -- -- 71
2020-09-04 09:00:00 17.9 6 Nordeste 9 Este 0 -- -- 79
2020-09-04 08:00:00 14.9 0 Calma 4 Oeste 0 -- -- 91
2020-09-04 07:00:00 14.8 3 Oeste 6 Este 0 -- -- 90
2020-09-04 06:00:00 15.6 3 Este 5 Nordeste 0 -- -- 87
2020-09-04 05:00:00 16.6 0 Calma 6 Nordeste 0 -- -- 86
2020-09-04 04:00:00 18.2 0 Calma 11 Nordeste 0 -- -- 83
2020-09-04 03:00:00 19.2 8 Nordeste 10 Nordeste 0 -- -- 82
2020-09-04 02:00:00 19.8 4 Nordeste 9 Este 0 -- -- 76
2020-09-04 01:00:00 20.5 4 Nordeste 6 Nordeste 0 -- -- 75
2020-09-04 00:00:00 21.1 0 Calma 5 Nordeste 0 -- -- 70
2020-09-03 23:00:00 23.2 5 Sudoeste 8 Sudoeste 0 -- -- 64
2020-09-03 22:00:00 24.7 0 Calma 16 Este 0 -- -- 60
2020-09-03 21:00:00 26.6 12 Este 23 Este 0 -- -- 53
2020-09-03 20:00:00 28 9 Este 18 Este 0 -- -- 36
2020-09-03 19:00:00 29.2 13 Este 24 Este 0 -- -- 35
2020-09-03 18:00:00 29.9 14 Este 22 Este 0 -- -- 32
2020-09-03 17:00:00 30.3 10 Nordeste 21 Nordeste 0 -- -- 30
2020-09-03 16:00:00 29.7 10 Nordeste 22 Este 0 -- -- 32
2020-09-03 15:00:00 28.6 9 Este 20 Este 0 -- -- 35
2020-09-03 14:00:00 27.8 10 Nordeste 17 Nordeste 0 -- -- 40
2020-09-03 13:00:00 25.7 8 Nordeste 14 Nordeste 0 -- -- 46
2020-09-03 12:00:00 23.6 6 Este 12 Nordeste 0 -- -- 52
2020-09-03 11:00:00 21.4 7 Nordeste 14 Este 0 -- -- 55
2020-09-03 10:00:00 19.3 4 Este 12 Sur 0 -- -- 59
2020-09-03 09:00:00 15.6 6 Sur 10 Sudoeste 0 -- -- 64
2020-09-03 08:00:00 12.7 4 Oeste 8 Oeste 0 -- -- 73
2020-09-03 07:00:00 12.3 5 Oeste 7 Oeste 0 -- -- 74
2020-09-03 06:00:00 12.9 4 Noroeste 7 Noroeste 0 -- -- 69
2020-09-03 05:00:00 13.2 5 Oeste 9 Oeste 0 -- -- 66
2020-09-03 04:00:00 14.7 8 Oeste 11 Oeste 0 -- -- 60
2020-09-03 03:00:00 15.4 5 Noroeste 8 Noroeste 0 -- -- 60
2020-09-03 02:00:00 16.8 3 Oeste 5 Este 0 -- -- 72
2020-09-03 01:00:00 18.1 0 Calma 5 Noroeste 0 -- -- 68
2020-09-03 00:00:00 19.5 3 Sudoeste 9 Oeste 0 -- -- 62
2020-09-02 23:00:00 21.7 6 Oeste 19 Oeste 0 -- -- 57
2020-09-02 22:00:00 22 3 Norte 6 Nordeste 0 -- -- 49
2020-09-02 21:00:00 24.1 0 Calma 10 Nordeste 0 -- -- 44
2020-09-02 20:00:00 26.3 6 Nordeste 10 Nordeste 0 -- -- 37
2020-09-02 19:00:00 27.7 6 Nordeste 15 Nordeste 0 -- -- 31
2020-09-02 18:00:00 28.1 6 Nordeste 14 Nordeste 0 -- -- 31
2020-09-02 17:00:00 28.2 10 Oeste 21 Noroeste 0 -- -- 29
2020-09-02 16:00:00 27.9 9 Sudoeste 21 Oeste 0 -- -- 37
2020-09-02 15:00:00 26.5 8 Nordeste 26 Nordeste 0 -- -- 41
2020-09-02 14:00:00 25.6 8 Noroeste 21 Sur 0 -- -- 42
2020-09-02 13:00:00 24.3 12 Sur 22 Este 0 -- -- 44
2020-09-02 12:00:00 22.7 10 Sudeste 24 Sur 0 -- -- 47
2020-09-02 11:00:00 20.7 10 Este 19 Este 0 -- -- 57
2020-09-02 10:00:00 18.7 6 Nordeste 10 Nordeste 0 -- -- 62
2020-09-02 09:00:00 16.1 4 Sudoeste 12 Sudoeste 0 -- -- 71
2020-09-02 08:00:00 13.7 9 Oeste 14 Oeste 0 -- -- 78
2020-09-02 07:00:00 13.3 8 Oeste 11 Oeste 0 -- -- 77
2020-09-02 06:00:00 13.6 7 Oeste 11 Oeste 0 -- -- 71
2020-09-02 05:00:00 14.5 9 Oeste 12 Oeste 0 -- -- 63
2020-09-02 04:00:00 15.7 8 Oeste 10 Oeste 0 -- -- 54
2020-09-02 03:00:00 15.2 6 Oeste 10 Oeste 0 -- -- 50
2020-09-02 02:00:00 16.5 6 Oeste 9 Oeste 0 -- -- 47
2020-09-02 01:00:00 16.9 5 Oeste 8 Noroeste 0 -- -- 45
2020-09-02 00:00:00 18.9 7 Oeste 18 Oeste 0 -- -- 41
2020-09-01 23:00:00 20.9 13 Oeste 18 Oeste 0 -- -- 37
2020-09-01 22:00:00 22.3 12 Sudoeste 18 Sudoeste 0 -- -- 35
2020-09-01 21:00:00 24.4 8 Sudoeste 13 Sudoeste 0 -- -- 31
2020-09-01 20:00:00 26.5 8 Sudoeste 14 Sur 0 -- -- 28
2020-09-01 19:00:00 27.7 7 Sur 17 Sur 0 -- -- 28
2020-09-01 18:00:00 27.1 5 Nordeste 12 Este 0 -- -- 32
2020-09-01 17:00:00 27.1 8 Este 13 Este 0 -- -- 30
2020-09-01 16:00:00 26.6 6 Nordeste 16 Este 0 -- -- 32
2020-09-01 15:00:00 25.4 9 Este 17 Nordeste 0 -- -- 38
2020-09-01 14:00:00 24.8 11 Este 17 Este 0 -- -- 41
2020-09-01 13:00:00 23.6 6 Nordeste 15 Nordeste 0 -- -- 45
2020-09-01 12:00:00 21.1 9 Este 17 Este 0 -- -- 50
2020-09-01 11:00:00 20.3 8 Este 12 Este 0 -- -- 50
2020-09-01 10:00:00 17.3 6 Este 10 Este 0 -- -- 56
2020-09-01 09:00:00 14.6 4 Este 7 Este 0 -- -- 63
2020-09-01 08:00:00 12 3 Oeste 9 Oeste 0 -- -- 70
2020-09-01 07:00:00 12 6 Oeste 10 Oeste 0 -- -- 71
2020-09-01 06:00:00 12.6 6 Oeste 9 Oeste 0 -- -- 71
2020-09-01 05:00:00 13.1 4 Oeste 7 Noroeste 0 -- -- 71
2020-09-01 04:00:00 14.2 4 Noroeste 7 Oeste 0 -- -- 62
2020-09-01 03:00:00 15.2 0 Calma 6 Este 0 -- -- 58
2020-09-01 02:00:00 16 4 Nordeste 6 Nordeste 0 -- -- 61
2020-09-01 01:00:00 17 2 Norte 5 Este 0 -- -- 49
2020-09-01 00:00:00 18.8 4 Oeste 12 Sudoeste 0 -- -- 43
2020-08-31 23:00:00 18.9 5 Noroeste 8 Noroeste 0 -- -- 45
2020-08-31 22:00:00 19.2 4 Oeste 6 Oeste 0 -- -- 43
2020-08-31 21:00:00 21.6 2 Oeste 9 Norte 0 -- -- 35
2020-08-31 20:00:00 25.8 4 Norte 13 Nordeste 0 -- -- 30
2020-08-31 19:00:00 27.3 5 Norte 23 Oeste 0 -- -- 27
2020-08-31 18:00:00 27.7 6 Noroeste 21 Sudeste 0 -- -- 24
2020-08-31 17:00:00 27.1 9 Noroeste 18 Nordeste 0 -- -- 28
2020-08-31 16:00:00 25.7 12 Este 23 Este 0 -- -- 34
2020-08-31 15:00:00 25.6 9 Nordeste 32 Nordeste 0 -- -- 34
2020-08-31 14:00:00 23.7 9 Oeste 27 Nordeste 0 -- -- 36
2020-08-31 13:00:00 22.5 9 Noroeste 21 Sur 0 -- -- 40
2020-08-31 12:00:00 21.2 5 Sur 36 Sur 0 -- -- 44
2020-08-31 11:00:00 18.8 7 Oeste 22 Oeste 0 -- -- 51
2020-08-31 10:00:00 16.2 14 Oeste 25 Oeste 0 -- -- 59
2020-08-31 09:00:00 14.4 8 Sudoeste 20 Sudoeste 0 -- -- 68
2020-08-31 08:00:00 12.3 6 Sudoeste 14 Sudoeste 0 -- -- 74
2020-08-31 07:00:00 12.2 10 Sudoeste 20 Oeste 0 -- -- 75
2020-08-31 06:00:00 12.4 13 Sudoeste 18 Sudoeste 0 -- -- 72
2020-08-31 05:00:00 12.8 9 Sudoeste 14 Oeste 0 -- -- 70
2020-08-31 04:00:00 13.7 11 Sudoeste 16 Sudoeste 0 -- -- 66
2020-08-31 03:00:00 14.9 8 Sudoeste 32 Oeste 0 -- -- 63
2020-08-31 02:00:00 15.7 9 Oeste 24 Oeste 0 -- -- 60
2020-08-31 01:00:00 16.6 14 Oeste 30 Oeste 0 -- -- 57
2020-08-31 00:00:00 17.4 8 Sudoeste 19 Sudoeste 0 -- -- 53
2020-08-30 23:00:00 18.5 10 Sudoeste 18 Oeste 0 -- -- 50
2020-08-30 22:00:00 19.2 10 Oeste 18 Noroeste 0 -- -- 48
2020-08-30 21:00:00 20.7 8 Oeste 24 Oeste 0 -- -- 45
2020-08-30 20:00:00 23.6 14 Oeste 28 Oeste 0 -- -- 39
2020-08-30 19:00:00 24.7 15 Oeste 29 Oeste 0 -- -- 35
2020-08-30 18:00:00 25.5 14 Oeste 28 Oeste 0 -- -- 33
2020-08-30 17:00:00 25 15 Oeste 41 Oeste 0 -- -- 33
2020-08-30 16:00:00 24.5 13 Oeste 31 Oeste 0 -- -- 34
2020-08-30 15:00:00 24.1 17 Oeste 32 Noroeste 0 -- -- 35
2020-08-30 14:00:00 23.3 15 Noroeste 33 Noroeste 0 -- -- 39
2020-08-30 13:00:00 22 17 Oeste 29 Oeste 0 -- -- 41
2020-08-30 12:00:00 20.2 20 Oeste 36 Oeste 0 -- -- 48
2020-08-30 11:00:00 19 21 Oeste 38 Oeste 0 -- -- 51
2020-08-30 10:00:00 17.5 23 Oeste 41 Oeste 0 -- -- 56
2020-08-30 09:00:00 15.8 25 Oeste 45 Noroeste 0 -- -- 61
2020-08-30 08:00:00 14.6 25 Oeste 40 Oeste 0 -- -- 64
2020-08-30 07:00:00 14.6 19 Oeste 40 Oeste 0 -- -- 64
2020-08-30 06:00:00 14.9 24 Oeste 48 Oeste 0 -- -- 64
2020-08-30 05:00:00 15.1 20 Oeste 42 Oeste 0 -- -- 65
2020-08-30 04:00:00 15.5 23 Oeste 45 Oeste 0 -- -- 63
2020-08-30 03:00:00 16.4 23 Oeste 48 Oeste 0 -- -- 60
2020-08-30 02:00:00 17 25 Oeste 50 Noroeste 0 -- -- 61
2020-08-30 01:00:00 17 28 Oeste 53 Oeste 0 -- -- 62
2020-08-30 00:00:00 17.9 27 Oeste 48 Oeste 0 -- -- 57
2020-08-29 23:00:00 18.5 31 Oeste 55 Oeste 0 -- -- 55
2020-08-29 22:00:00 19.5 33 Oeste 50 Oeste 0 -- -- 52
2020-08-29 21:00:00 21.1 26 Oeste 48 Noroeste 0 -- -- 43
2020-08-29 20:00:00 23.4 27 Oeste 46 Oeste 0 -- -- 38
2020-08-29 19:00:00 25 28 Oeste 49 Noroeste 0 -- -- 32
2020-08-29 18:00:00 26.1 25 Oeste 48 Oeste 0 -- -- 32
2020-08-29 17:00:00 26.2 25 Oeste 46 Oeste 0 -- -- 32
2020-08-29 16:00:00 25.9 28 Oeste 43 Oeste 0 -- -- 34
2020-08-29 15:00:00 25.1 25 Oeste 41 Oeste 0 -- -- 36
2020-08-29 14:00:00 24.5 22 Oeste 44 Noroeste 0 -- -- 38
2020-08-29 13:00:00 23.1 21 Oeste 37 Noroeste 0 -- -- 42
2020-08-29 12:00:00 21.8 19 Oeste 40 Noroeste 0 -- -- 45
2020-08-29 11:00:00 19.6 17 Oeste 39 Oeste 0 -- -- 53
2020-08-29 10:00:00 18.5 21 Oeste 39 Oeste 0 -- -- 55
2020-08-29 09:00:00 18.3 17 Oeste 28 Oeste 0 -- -- 52
2020-08-29 08:00:00 18 13 Oeste 30 Oeste 0 -- -- 55
2020-08-29 07:00:00 18.2 11 Oeste 28 Noroeste 0 -- -- 55
2020-08-29 06:00:00 18.9 16 Oeste 30 Oeste 0 -- -- 53
2020-08-29 05:00:00 19.3 14 Noroeste 24 Oeste 0 -- -- 51
2020-08-29 04:00:00 19.4 13 Oeste 31 Oeste 0 -- -- 51
2020-08-29 03:00:00 19.9 18 Oeste 32 Oeste 0 -- -- 49
2020-08-29 02:00:00 20.3 13 Oeste 30 Oeste 0 -- -- 52
2020-08-29 01:00:00 20.4 9 Oeste 32 Oeste 0 -- -- 55
2020-08-29 00:00:00 21.7 14 Oeste 32 Oeste 0 -- -- 53
2020-08-28 23:00:00 22.8 19 Oeste 53 Oeste 0 -- -- 51
2020-08-28 22:00:00 24.4 25 Oeste 44 Oeste 0 -- -- 50
2020-08-28 21:00:00 24.6 11 Noroeste 23 Oeste 0 -- -- 51
2020-08-28 20:00:00 23.8 15 Este 58 Este 0 -- -- 63
2020-08-28 19:00:00 30 13 Oeste 23 Noroeste 0 -- -- 51
2020-08-28 18:00:00 30.4 7 Noroeste 20 Noroeste 0 -- -- 54
2020-08-28 17:00:00 30.9 8 Nordeste 19 Nordeste 0 -- -- 53
2020-08-28 16:00:00 31.4 9 Oeste 22 Oeste 0 -- -- 48
2020-08-28 15:00:00 29.7 9 Sudoeste 24 Sudeste 0 -- -- 54
2020-08-28 14:00:00 29.5 8 Sur 22 Sudoeste 0 -- -- 57
2020-08-28 13:00:00 28.1 13 Sudoeste 24 Sudoeste 0 -- -- 59
2020-08-28 12:00:00 27.1 11 Sudoeste 24 Sudoeste 0 -- -- 60
2020-08-28 11:00:00 25.7 13 Sudeste 21 Este 0 -- -- 63
2020-08-28 10:00:00 24.3 11 Este 17 Este 0 -- -- 67
2020-08-28 09:00:00 23.4 5 Sur 14 Sur 0 -- -- 72
2020-08-28 08:00:00 22.8 10 Sur 15 Sur 0 -- -- 80
2020-08-28 07:00:00 22.8 5 Este 9 Nordeste 0 -- -- 88
2020-08-28 06:00:00 22.8 6 Nordeste 12 Nordeste 0 -- -- 89
2020-08-28 05:00:00 23.8 2 Este 22 Este 0 -- -- 84
2020-08-28 04:00:00 24 11 Este 22 Sudeste 0 -- -- 84
2020-08-28 03:00:00 24.2 8 Nordeste 14 Nordeste 0 -- -- 83
2020-08-28 02:00:00 24.7 8 Nordeste 22 Este 0 -- -- 81
2020-08-28 01:00:00 25.2 14 Este 21 Este 0 -- -- 80
2020-08-28 00:00:00 26.2 7 Nordeste 12 Nordeste 0 -- -- 75
2020-08-27 23:00:00 27.7 5 Nordeste 16 Sur 0 -- -- 68
2020-08-27 22:00:00 29.6 8 Sur 16 Sur 0 -- -- 59
2020-08-27 21:00:00 31.5 7 Sudeste 23 Sudeste 0 -- -- 54
2020-08-27 20:00:00 33.8 15 Este 23 Este 0 -- -- 48
2020-08-27 19:00:00 35.3 8 Nordeste 18 Este 0 -- -- 37
2020-08-27 18:00:00 35.5 9 Nordeste 18 Este 0 -- -- 37
2020-08-27 17:00:00 35.3 8 Nordeste 18 Este 0 -- -- 37
2020-08-27 16:00:00 34.4 7 Nordeste 21 Este 0 -- -- 41
2020-08-27 15:00:00 33.8 9 Nordeste 18 Nordeste 0 -- -- 43
2020-08-27 14:00:00 32.2 8 Este 20 Nordeste 0 -- -- 50
2020-08-27 13:00:00 30.7 8 Este 15 Este 0 -- -- 53
2020-08-27 12:00:00 28.5 6 Norte 13 Este 0 -- -- 67
2020-08-27 11:00:00 26.2 4 Nordeste 10 Nordeste 0 -- -- 77
2020-08-27 10:00:00 24.4 4 Nordeste 9 Nordeste 0 -- -- 82
2020-08-27 09:00:00 23 3 Este 9 Nordeste 0 -- -- 87
2020-08-27 08:00:00 22.4 3 Nordeste 7 Norte 0 -- -- 88
2020-08-27 07:00:00 22.1 0 Calma 4 Norte 0 -- -- 89
2020-08-27 06:00:00 22.4 2 Este 8 Nordeste 0 -- -- 87
2020-08-27 05:00:00 23.2 3 Nordeste 16 Nordeste 0 -- -- 84
2020-08-27 04:00:00 23.8 13 Nordeste 23 Este 0 -- -- 83
2020-08-27 03:00:00 24.1 11 Nordeste 18 Este 0 -- -- 82
2020-08-27 02:00:00 24.6 9 Nordeste 14 Nordeste 0 -- -- 81
2020-08-27 01:00:00 25.4 5 Nordeste 10 Sudeste 0 -- -- 78
2020-08-27 00:00:00 27 3 Este 10 Sur 0 -- -- 71
2020-08-26 23:00:00 28.3 3 Este 11 Sur 0 -- -- 67
2020-08-26 22:00:00 29.7 6 Sudoeste 12 Nordeste 0 -- -- 60
2020-08-26 21:00:00 30.6 9 Nordeste 21 Sudeste 0 -- -- 60
2020-08-26 20:00:00 33.7 12 Este 23 Este 0 -- -- 49
2020-08-26 19:00:00 34.7 9 Nordeste 18 Nordeste 0 -- -- 46
2020-08-26 18:00:00 34.8 10 Nordeste 19 Nordeste 0 -- -- 45
2020-08-26 17:00:00 34.7 8 Nordeste 19 Nordeste 0 -- -- 44
2020-08-26 16:00:00 34.4 8 Este 19 Este 0 -- -- 43
2020-08-26 15:00:00 33.7 10 Nordeste 18 Nordeste 0 -- -- 42
2020-08-26 14:00:00 32.6 10 Oeste 23 Sudoeste 0 -- -- 40
2020-08-26 13:00:00 31 10 Sudoeste 22 Sur 0 -- -- 40
2020-08-26 12:00:00 29.8 9 Sur 19 Sur 0 -- -- 42
2020-08-26 11:00:00 27.6 6 Este 15 Sur 0 -- -- 51
2020-08-26 10:00:00 25.4 6 Sudeste 15 Este 0 -- -- 56
2020-08-26 09:00:00 23.2 2 Este 8 Nordeste 0 -- -- 76
2020-08-26 08:00:00 20.8 4 Oeste 8 Oeste 0 -- -- 87
2020-08-26 07:00:00 20.6 0 Calma 4 Oeste 0 -- -- 86
2020-08-26 06:00:00 21.3 2 Este 4 Nordeste 0 -- -- 84
2020-08-26 05:00:00 22.4 0 Calma 15 Nordeste 0 -- -- 81
2020-08-26 04:00:00 23.2 9 Nordeste 19 Nordeste 0 -- -- 80
2020-08-26 03:00:00 24.2 10 Nordeste 19 Nordeste 0 -- -- 76
2020-08-26 02:00:00 25 9 Este 19 Este 0 -- -- 72
2020-08-26 01:00:00 25.7 6 Este 10 Nordeste 0 -- -- 67
2020-08-26 00:00:00 27.2 6 Nordeste 10 Nordeste 0 -- -- 63
2020-08-25 23:00:00 28.5 10 Nordeste 15 Sur 0 -- -- 60
2020-08-25 22:00:00 31.2 8 Sudeste 21 Sur 0 -- -- 52
2020-08-25 21:00:00 32.5 7 Sudeste 20 Sudeste 0 -- -- 43
2020-08-25 20:00:00 34.7 7 Este 13 Este 0 -- -- 30
2020-08-25 19:00:00 35.7 6 Este 13 Nordeste 0 -- -- 27
2020-08-25 18:00:00 36.2 7 Nordeste 16 Nordeste 0 -- -- 27
2020-08-25 17:00:00 35.6 8 Nordeste 21 Oeste 0 -- -- 31
2020-08-25 16:00:00 34.3 8 Nordeste 17 Nordeste 0 -- -- 36
2020-08-25 15:00:00 33.3 9 Este 17 Nordeste 0 -- -- 41
2020-08-25 14:00:00 31.2 6 Nordeste 15 Este 0 -- -- 47
2020-08-25 13:00:00 29.2 6 Este 18 Este 0 -- -- 56
2020-08-25 12:00:00 27.3 7 Nordeste 15 Este 0 -- -- 59
2020-08-25 11:00:00 25.3 9 Nordeste 17 Nordeste 0 -- -- 56
2020-08-25 10:00:00 23.3 10 Nordeste 15 Nordeste 0 -- -- 58
2020-08-25 09:00:00 20 4 Este 6 Nordeste 0 -- -- 69
2020-08-25 08:00:00 17.1 3 Este 7 Oeste 0 -- -- 79
2020-08-25 07:00:00 16.3 4 Oeste 5 Noroeste 0 -- -- 80
2020-08-25 06:00:00 16.6 2 Oeste 6 Este 0 -- -- 78
2020-08-25 05:00:00 17.4 0 Calma 5 Noroeste 0 -- -- 76
2020-08-25 04:00:00 18.1 3 Norte 6 Nordeste 0 -- -- 70
2020-08-25 03:00:00 18.9 0 Calma 5 Nordeste 0 -- -- 69
2020-08-25 02:00:00 20.2 0 Calma 5 Oeste 0 -- -- 66
2020-08-25 01:00:00 21.1 0 Calma 5 Nordeste 0 -- -- 60
2020-08-25 00:00:00 22.4 4 Oeste 7 Noroeste 0 -- -- 56
2020-08-24 23:00:00 23.6 0 Calma 7 Nordeste 0 -- -- 52
2020-08-24 22:00:00 25.7 0 Calma 5 Sudoeste 0 -- -- 46
2020-08-24 21:00:00 28.3 4 Sudeste 11 Este 0 -- -- 41
2020-08-24 20:00:00 30.2 8 Este 13 Este 0 -- -- 38
2020-08-24 19:00:00 30.9 5 Nordeste 13 Este 0 -- -- 35
2020-08-24 18:00:00 31 7 Nordeste 22 Este 0 -- -- 35
2020-08-24 17:00:00 30.9 7 Nordeste 21 Nordeste 0 -- -- 35
2020-08-24 16:00:00 30.5 12 Nordeste 20 Este 0 -- -- 35
2020-08-24 15:00:00 30 10 Noroeste 21 Noroeste 0 -- -- 35
2020-08-24 14:00:00 28.3 11 Noroeste 23 Oeste 0 -- -- 38
2020-08-24 13:00:00 26.5 11 Oeste 21 Oeste 0 -- -- 43
2020-08-24 12:00:00 24.2 8 Oeste 23 Noroeste 0 -- -- 50
2020-08-24 11:00:00 22.3 14 Oeste 25 Noroeste 0 -- -- 54
2020-08-24 10:00:00 20.5 12 Oeste 22 Noroeste 0 -- -- 61
2020-08-24 09:00:00 19.2 8 Noroeste 13 Noroeste 0 -- -- 66
2020-08-24 08:00:00 16.2 9 Oeste 13 Oeste 0 -- -- 75
2020-08-24 07:00:00 15.6 9 Oeste 13 Oeste 0 -- -- 77
2020-08-24 06:00:00 16.3 9 Oeste 12 Oeste 0 -- -- 75
2020-08-24 05:00:00 17.3 8 Sudoeste 15 Sudoeste 0 -- -- 71
2020-08-24 04:00:00 18 7 Sudoeste 11 Sudoeste 0 -- -- 68
2020-08-24 03:00:00 20 9 Oeste 20 Sudoeste 0 -- -- 61
2020-08-24 02:00:00 21.3 13 Oeste 20 Oeste 0 -- -- 56
2020-08-24 01:00:00 21.1 6 Sudoeste 14 Sudoeste 0 -- -- 49
2020-08-24 00:00:00 22 11 Oeste 17 Sudoeste 0 -- -- 44
2020-08-23 23:00:00 23.3 8 Sudoeste 13 Sudoeste 0 -- -- 39
2020-08-23 22:00:00 24.6 9 Oeste 15 Oeste 0 -- -- 36
2020-08-23 21:00:00 27.9 7 Oeste 21 Noroeste 0 -- -- 30
2020-08-23 20:00:00 31.5 11 Noroeste 20 Noroeste 0 -- -- 27
2020-08-23 19:00:00 31.7 6 Nordeste 17 Noroeste 0 -- -- 29
2020-08-23 18:00:00 31.8 10 Nordeste 19 Nordeste 0 -- -- 31
2020-08-23 17:00:00 31.6 9 Nordeste 16 Nordeste 0 -- -- 35
2020-08-23 16:00:00 30.8 12 Nordeste 20 Norte 0 -- -- 37
2020-08-23 15:00:00 29.9 14 Este 26 Este 0 -- -- 39
2020-08-23 14:00:00 29.5 11 Nordeste 18 Nordeste 0 -- -- 40
2020-08-23 13:00:00 28.3 10 Este 32 Sur 0 -- -- 42
2020-08-23 12:00:00 25.6 9 Norte 23 Noroeste 0 -- -- 47
2020-08-23 11:00:00 24.3 11 Noroeste 20 Oeste 0 -- -- 49
2020-08-23 10:00:00 22.6 15 Oeste 24 Oeste 0 -- -- 54
2020-08-23 09:00:00 20.9 8 Sur 17 Sudoeste 0 -- -- 61
2020-08-23 08:00:00 18.8 13 Sudoeste 21 Sudoeste 0 -- -- 69
2020-08-23 07:00:00 18.3 13 Sudoeste 21 Sudoeste 0 -- -- 70
2020-08-23 06:00:00 17.7 8 Oeste 12 Oeste 0 -- -- 71
2020-08-23 05:00:00 18.9 3 Oeste 15 Oeste 0 -- -- 66
2020-08-23 04:00:00 20 6 Oeste 14 Sudoeste 0 -- -- 63
2020-08-23 03:00:00 21.9 5 Sudoeste 15 Oeste 0 -- -- 51
2020-08-23 02:00:00 23.7 17 Oeste 30 Noroeste 0 -- -- 46
2020-08-23 01:00:00 25.8 15 Noroeste 27 Noroeste 0 -- -- 40
2020-08-23 00:00:00 26.6 18 Oeste 28 Noroeste 0 -- -- 40
2020-08-22 23:00:00 25.4 10 Oeste 14 Oeste 0 -- -- 41
2020-08-22 22:00:00 27.6 9 Oeste 19 Oeste 0 -- -- 34
2020-08-22 21:00:00 30.4 11 Oeste 20 Noroeste 0 -- -- 29
2020-08-22 20:00:00 32.7 10 Oeste 22 Oeste 0 -- -- 28
2020-08-22 19:00:00 33.7 14 Noroeste 26 Noroeste 0 -- -- 25
2020-08-22 18:00:00 34.2 15 Oeste 25 Oeste 0 -- -- 28
2020-08-22 17:00:00 34.6 11 Oeste 23 Norte 0 -- -- 29
2020-08-22 16:00:00 34.2 7 Oeste 27 Oeste 0 -- -- 30
2020-08-22 15:00:00 33.2 8 Noroeste 21 Oeste 0 -- -- 32
2020-08-22 14:00:00 32.3 8 Norte 21 Nordeste 0 -- -- 34
2020-08-22 13:00:00 31 8 Oeste 21 Noroeste 0 -- -- 35
2020-08-22 12:00:00 29.4 9 Norte 22 Oeste 0 -- -- 38
2020-08-22 11:00:00 26.8 13 Noroeste 21 Oeste 0 -- -- 47
2020-08-22 10:00:00 24.2 14 Oeste 22 Oeste 0 -- -- 57
2020-08-22 09:00:00 23 11 Oeste 19 Oeste 0 -- -- 62
2020-08-22 08:00:00 22.1 6 Oeste 20 Oeste 0 -- -- 67
2020-08-22 07:00:00 21.8 2 Sudoeste 11 Sudoeste 0 -- -- 69
2020-08-22 06:00:00 22.7 8 Oeste 16 Sudoeste 0 -- -- 68
2020-08-22 05:00:00 23.4 10 Oeste 19 Sudoeste 0 -- -- 66
2020-08-22 04:00:00 24.4 14 Oeste 27 Sudoeste 0 -- -- 61
2020-08-22 03:00:00 25.3 12 Sudoeste 19 Sudoeste 0 -- -- 58
2020-08-22 02:00:00 25.8 12 Sudoeste 16 Sudoeste 0 -- -- 59
2020-08-22 01:00:00 27.4 11 Noroeste 21 Noroeste 0 -- -- 54
2020-08-22 00:00:00 28.1 11 Oeste 18 Oeste 0 -- -- 64
2020-08-21 23:00:00 30 5 Sudeste 22 Sudeste 0 -- -- 58
2020-08-21 22:00:00 31.3 5 Sudeste 14 Este 0 -- -- 52
2020-08-21 21:00:00 33.4 10 Este 15 Este 0 -- -- 31
2020-08-21 20:00:00 34.7 6 Nordeste 14 Este 0 -- -- 26
2020-08-21 19:00:00 35.8 9 Nordeste 18 Nordeste 0 -- -- 24
2020-08-21 18:00:00 36.2 12 Nordeste 22 Nordeste 0 -- -- 26
2020-08-21 17:00:00 35.9 13 Nordeste 21 Nordeste 0 -- -- 29
2020-08-21 16:00:00 35.6 13 Este 21 Este 0 -- -- 35
2020-08-21 15:00:00 34.4 13 Este 20 Este 0 -- -- 39
2020-08-21 14:00:00 33.3 11 Este 18 Nordeste 0 -- -- 45
2020-08-21 13:00:00 31.8 10 Nordeste 20 Nordeste 0 -- -- 50
2020-08-21 12:00:00 30 10 Este 17 Este 0 -- -- 57
2020-08-21 11:00:00 27.5 9 Nordeste 15 Este 0 -- -- 63
2020-08-21 10:00:00 25 9 Nordeste 12 Este 0 -- -- 67
2020-08-21 09:00:00 22.6 6 Este 10 Este 0 -- -- 74
2020-08-21 08:00:00 20.7 2 Noroeste 5 Este 0 -- -- 81
2020-08-21 07:00:00 20.2 0 Calma 15 Nordeste 0 -- -- 79
2020-08-21 06:00:00 22 7 Este 20 Este 0 -- -- 76
2020-08-21 05:00:00 23.2 13 Este 22 Este 0 -- -- 71
2020-08-21 04:00:00 23.5 13 Este 22 Este 0 -- -- 67
2020-08-21 03:00:00 24.1 14 Este 27 Este 0 -- -- 62
2020-08-21 02:00:00 24.6 17 Este 25 Este 0 -- -- 61
2020-08-21 01:00:00 24.9 13 Este 21 Este 0 -- -- 58
2020-08-21 00:00:00 26.6 18 Este 29 Este 0 -- -- 55
2020-08-20 23:00:00 26.9 16 Este 27 Sudeste 0 -- -- 54
2020-08-20 22:00:00 28.1 15 Este 33 Este 0 -- -- 48
2020-08-20 21:00:00 29.2 19 Este 42 Este 0 -- -- 46
2020-08-20 20:00:00 30.9 25 Este 47 Este 0 -- -- 41
2020-08-20 19:00:00 31.8 26 Este 43 Este 0 -- -- 42
2020-08-20 18:00:00 33.7 24 Este 44 Este 0 -- -- 37
2020-08-20 17:00:00 34.5 26 Este 42 Sudeste 0 -- -- 38
2020-08-20 16:00:00 35 27 Este 40 Este 0 -- -- 35
2020-08-20 15:00:00 35.2 24 Este 39 Este 0 -- -- 35
2020-08-20 14:00:00 34.3 21 Este 33 Este 0 -- -- 38
2020-08-20 13:00:00 32.8 19 Este 28 Nordeste 0 -- -- 42
2020-08-20 12:00:00 30.4 18 Este 29 Este 0 -- -- 49
2020-08-20 11:00:00 28.5 13 Este 21 Nordeste 0 -- -- 53
2020-08-20 10:00:00 25.3 4 Este 11 Nordeste 0 -- -- 59
2020-08-20 09:00:00 22.6 4 Este 6 Este 0 -- -- 70
2020-08-20 08:00:00 19.7 2 Sudoeste 6 Este 0 -- -- 78
2020-08-20 07:00:00 19.2 2 Nordeste 8 Nordeste 0 -- -- 81
2020-08-20 06:00:00 19.9 3 Sur 12 Nordeste 0 -- -- 77
2020-08-20 05:00:00 21.8 6 Nordeste 15 Nordeste 0 -- -- 68
2020-08-20 04:00:00 23.1 10 Este 17 Este 0 -- -- 64
2020-08-20 03:00:00 23.7 10 Nordeste 16 Este 0 -- -- 65
2020-08-20 02:00:00 24.4 10 Nordeste 17 Sudeste 0 -- -- 69
2020-08-20 01:00:00 25.2 12 Este 20 Este 0 -- -- 69
2020-08-20 00:00:00 25.6 7 Nordeste 15 Nordeste 0 -- -- 65